createdAt,value
2019-01-18T00:00:56.306Z,3.50
2019-01-18T00:03:23.816Z,3.33
2019-01-18T00:05:51.352Z,3.50
2019-01-18T00:08:18.827Z,3.60
2019-01-18T00:10:46.683Z,3.17
2019-01-18T00:13:14.243Z,4.43
2019-01-18T00:15:41.733Z,3.60
2019-01-18T00:18:09.548Z,5.50
2019-01-18T00:20:37.028Z,3.90
2019-01-18T00:23:04.846Z,3.53
2019-01-18T00:25:32.623Z,4.33
2019-01-18T00:28:00.147Z,3.70
2019-01-18T00:30:27.881Z,5.77
2019-01-18T00:32:55.438Z,5.90
2019-01-18T00:35:22.883Z,3.53
2019-01-18T00:37:50.375Z,3.90
2019-01-18T00:40:18.707Z,3.33
2019-01-18T00:42:46.233Z,3.67
2019-01-18T00:45:14.616Z,6.20
2019-01-18T00:47:42.100Z,4.80
2019-01-18T00:50:11.762Z,3.60
2019-01-18T00:52:39.328Z,3.30
2019-01-18T00:55:07.132Z,3.30
2019-01-18T00:57:34.661Z,3.10
2019-01-18T01:00:03.927Z,5.10
2019-01-18T01:02:31.475Z,3.63
2019-01-18T01:04:58.927Z,3.30
2019-01-18T01:07:26.405Z,3.23
2019-01-18T01:09:54.179Z,3.27
2019-01-18T01:12:21.664Z,3.60
2019-01-18T01:14:49.172Z,4.10
2019-01-18T01:17:16.696Z,3.43
2019-01-18T01:19:44.136Z,2.90
2019-01-18T01:22:11.632Z,5.03
2019-01-18T01:24:39.128Z,3.47
2019-01-18T01:27:06.612Z,3.50
2019-01-18T01:29:34.384Z,4.80
2019-01-18T01:32:01.932Z,6.80
2019-01-18T01:34:29.428Z,6.47
2019-01-18T01:36:57.277Z,3.17
2019-01-18T01:39:24.835Z,4.07
2019-01-18T01:41:52.347Z,4.07
2019-01-18T01:44:20.104Z,3.80
2019-01-18T01:46:50.504Z,7.07
2019-01-18T01:49:18.160Z,4.33
2019-01-18T01:51:45.915Z,3.40
2019-01-18T01:54:13.427Z,5.83
2019-01-18T01:56:40.905Z,3.67
2019-01-18T01:59:08.405Z,4.90
2019-01-18T02:01:36.165Z,4.27
2019-01-18T02:04:03.815Z,4.67
2019-01-18T02:06:31.331Z,4.27
2019-01-18T02:08:58.855Z,5.40
2019-01-18T02:11:26.368Z,4.30
2019-01-18T02:13:53.859Z,6.13
2019-01-18T02:16:21.331Z,5.03
2019-01-18T02:18:48.863Z,4.93
2019-01-18T02:21:16.357Z,5.03
2019-01-18T02:23:43.884Z,3.73
2019-01-18T02:26:11.659Z,4.70
2019-01-18T02:28:39.144Z,3.50
2019-01-18T02:31:06.703Z,4.27
2019-01-18T02:33:34.243Z,4.80
2019-01-18T02:36:01.935Z,4.77
2019-01-18T02:38:29.437Z,7.83
2019-01-18T02:40:56.948Z,5.30
2019-01-18T02:43:24.400Z,10.20
2019-01-18T02:45:51.960Z,5.70
2019-01-18T02:48:22.188Z,4.53
2019-01-18T02:50:49.980Z,4.80
2019-01-18T02:53:17.457Z,7.03
2019-01-18T02:55:45.008Z,7.03
2019-01-18T02:58:12.457Z,7.60
2019-01-18T03:00:39.961Z,7.87
2019-01-18T03:03:07.467Z,5.20
2019-01-18T03:05:35.108Z,6.53
2019-01-18T03:08:02.604Z,7.13
2019-01-18T03:10:30.336Z,7.47
2019-01-18T03:12:57.813Z,6.47
2019-01-18T03:15:25.314Z,7.23
2019-01-18T03:17:52.886Z,4.63
2019-01-18T03:20:20.731Z,6.53
2019-01-18T03:22:48.202Z,7.90
2019-01-18T03:25:18.212Z,8.80
2019-01-18T03:27:45.667Z,5.10
2019-01-18T03:30:18.462Z,6.50
2019-01-18T03:32:44.194Z,4.63
2019-01-18T03:35:13.064Z,7.97
2019-01-18T03:37:40.549Z,4.40
2019-01-18T03:40:09.677Z,6.13
2019-01-18T03:42:37.587Z,9.40
2019-01-18T03:45:06.662Z,4.20
2019-01-18T03:47:34.150Z,4.63
2019-01-18T03:50:01.866Z,6.43
2019-01-18T03:52:29.365Z,6.93
2019-01-18T03:54:57.039Z,7.93
2019-01-18T03:57:24.541Z,5.87
2019-01-18T03:59:52.070Z,9.00
2019-01-18T04:02:19.550Z,5.70
2019-01-18T04:04:47.070Z,6.00
2019-01-18T04:07:14.545Z,6.27
2019-01-18T04:09:42.032Z,7.73
2019-01-18T04:12:09.569Z,6.00
2019-01-18T04:14:37.217Z,7.63
2019-01-18T04:17:04.697Z,3.90
2019-01-18T04:19:32.252Z,5.70
2019-01-18T04:21:59.719Z,3.57
2019-01-18T04:24:27.388Z,4.57
2019-01-18T04:26:55.020Z,7.10
2019-01-18T04:29:22.564Z,5.73
2019-01-18T04:31:50.128Z,6.03
2019-01-18T04:34:17.760Z,3.53
2019-01-18T04:36:45.770Z,12.63
2019-01-18T04:39:13.528Z,4.60
2019-01-18T04:41:41.285Z,8.40
2019-01-18T04:44:08.902Z,9.23
2019-01-18T04:46:36.472Z,7.77
2019-01-18T04:49:04.119Z,16.03
2019-01-18T04:51:33.873Z,12.50
2019-01-18T04:54:02.043Z,8.00
2019-01-18T04:56:29.753Z,6.40
2019-01-18T04:58:58.008Z,5.80
2019-01-18T05:01:25.578Z,4.63
2019-01-18T05:03:53.128Z,5.00
2019-01-18T05:06:20.657Z,7.87
2019-01-18T05:08:48.215Z,10.53
2019-01-18T05:11:16.583Z,3.90
2019-01-18T05:13:44.128Z,6.50
2019-01-18T05:16:11.920Z,8.67
2019-01-18T05:18:39.512Z,6.07
2019-01-18T05:21:07.474Z,8.53
2019-01-18T05:23:35.364Z,7.80
2019-01-18T05:26:03.638Z,5.70
2019-01-18T05:28:31.167Z,5.47
2019-01-18T05:30:58.695Z,4.90
2019-01-18T05:33:26.252Z,5.30
2019-01-18T05:35:53.907Z,5.57
2019-01-18T05:38:21.640Z,7.67
2019-01-18T05:40:49.487Z,6.77
2019-01-18T05:43:17.355Z,5.07
2019-01-18T05:45:45.180Z,7.27
2019-01-18T05:48:12.932Z,6.93
2019-01-18T05:50:40.821Z,6.00
2019-01-18T05:53:09.283Z,7.20
2019-01-18T05:55:37.112Z,7.87
2019-01-18T05:58:05.138Z,8.50
2019-01-18T06:00:37.763Z,5.73
2019-01-18T06:03:05.764Z,6.57
2019-01-18T06:05:35.366Z,8.37
2019-01-18T06:08:06.765Z,8.50
2019-01-18T06:10:34.609Z,6.37
2019-01-18T06:13:02.206Z,8.27
2019-01-18T06:15:30.120Z,7.30
2019-01-18T06:17:59.767Z,7.67
2019-01-18T06:20:28.596Z,6.50
2019-01-18T06:22:56.357Z,14.60
2019-01-18T06:25:24.776Z,8.30
2019-01-18T06:27:52.394Z,7.07
2019-01-18T06:30:28.797Z,10.40
2019-01-18T06:32:56.801Z,6.90
2019-01-18T06:35:24.597Z,6.87
2019-01-18T06:37:52.265Z,6.20
2019-01-18T06:40:20.043Z,8.27
2019-01-18T06:42:47.937Z,5.97
2019-01-18T06:45:28.299Z,8.17
2019-01-18T06:47:56.109Z,6.50
2019-01-18T06:50:23.989Z,6.60
2019-01-18T06:53:15.019Z,7.60
2019-01-18T06:55:42.929Z,5.90
2019-01-18T06:58:10.522Z,11.03
2019-01-18T07:00:38.336Z,9.87
2019-01-18T07:03:05.952Z,10.37
2019-01-18T07:05:33.488Z,6.90
2019-01-18T07:08:01.242Z,6.60
2019-01-18T07:10:30.448Z,8.30
2019-01-18T07:12:58.205Z,14.83
2019-01-18T07:15:26.053Z,15.43
2019-01-18T07:17:53.733Z,12.40
2019-01-18T07:20:21.260Z,6.30
2019-01-18T07:22:49.721Z,8.80
2019-01-18T07:25:28.206Z,9.43
2019-01-18T07:27:55.928Z,8.40
2019-01-18T07:30:37.837Z,7.53
2019-01-18T07:33:08.035Z,6.33
2019-01-18T07:35:35.609Z,8.17
2019-01-18T07:38:03.282Z,8.20
2019-01-18T07:40:30.915Z,8.17
2019-01-18T07:42:58.404Z,9.27
2019-01-18T07:45:27.079Z,9.07
2019-01-18T07:47:54.672Z,9.30
2019-01-18T07:50:22.143Z,7.03
2019-01-18T07:52:49.988Z,7.00
2019-01-18T07:55:17.505Z,7.63
2019-01-18T07:57:44.990Z,10.67
2019-01-18T08:00:15.472Z,8.00
2019-01-18T08:02:42.987Z,9.27
2019-01-18T08:05:10.444Z,10.73
2019-01-18T08:07:38.189Z,10.60
2019-01-18T08:10:09.168Z,11.47
2019-01-18T08:12:36.627Z,14.30
2019-01-18T08:15:05.145Z,11.40
2019-01-18T08:17:32.600Z,10.63
2019-01-18T08:20:00.164Z,14.20
2019-01-18T08:22:27.545Z,10.27
2019-01-18T08:24:55.040Z,10.07
2019-01-18T08:27:22.507Z,12.27
2019-01-18T08:29:49.992Z,9.20
2019-01-18T08:32:17.448Z,8.43
2019-01-18T08:34:45.055Z,7.77
2019-01-18T08:37:12.592Z,9.43
2019-01-18T08:39:40.313Z,9.10
2019-01-18T08:42:07.887Z,12.83
2019-01-18T08:44:35.624Z,8.70
2019-01-18T08:47:03.465Z,8.80
2019-01-18T08:49:31.140Z,9.00
2019-01-18T08:51:59.368Z,11.10
2019-01-18T08:54:27.220Z,12.27
2019-01-18T08:56:54.912Z,10.00
2019-01-18T08:59:22.849Z,9.13
2019-01-18T09:01:50.456Z,10.70
2019-01-18T09:04:17.984Z,9.13
2019-01-18T09:06:45.473Z,7.67
2019-01-18T09:09:12.965Z,9.40
2019-01-18T09:11:40.510Z,10.70
2019-01-18T09:14:08.028Z,13.17
2019-01-18T09:16:35.612Z,9.60
2019-01-18T09:19:03.174Z,11.27
2019-01-18T09:21:30.632Z,9.37
2019-01-18T09:23:58.124Z,8.47
2019-01-18T09:26:26.064Z,6.97
2019-01-18T09:28:53.692Z,8.50
2019-01-18T09:31:21.180Z,9.37
2019-01-18T09:33:48.780Z,9.97
2019-01-18T09:36:16.248Z,10.00
2019-01-18T09:38:43.725Z,10.17
2019-01-18T09:41:11.160Z,9.60
2019-01-18T09:43:38.616Z,14.00
2019-01-18T09:46:06.369Z,7.03
2019-01-18T09:48:33.896Z,11.03
2019-01-18T09:51:01.354Z,6.77
2019-01-18T09:53:28.822Z,6.13
2019-01-18T09:55:56.324Z,6.20
2019-01-18T09:58:23.825Z,7.43
2019-01-18T10:00:51.655Z,6.80
2019-01-18T10:03:19.498Z,6.50
2019-01-18T10:05:48.084Z,7.77
2019-01-18T10:08:15.911Z,7.63
2019-01-18T10:10:44.200Z,7.67
2019-01-18T10:13:12.239Z,6.70
2019-01-18T10:15:44.948Z,6.77
2019-01-18T10:18:13.727Z,7.03
2019-01-18T10:20:42.043Z,6.67
2019-01-18T10:23:10.017Z,8.93
2019-01-18T10:25:37.650Z,6.70
2019-01-18T10:28:05.350Z,10.07
2019-01-18T10:30:33.281Z,9.80
2019-01-18T10:33:01.046Z,11.80
2019-01-18T10:35:28.716Z,9.87
2019-01-18T10:37:56.456Z,9.17
2019-01-18T10:40:24.497Z,11.50
2019-01-18T10:42:52.272Z,6.13
2019-01-18T10:45:20.344Z,6.77
2019-01-18T10:47:48.259Z,8.43
2019-01-18T10:50:18.005Z,8.40
2019-01-18T10:52:45.945Z,8.30
2019-01-18T10:55:13.428Z,6.80
2019-01-18T10:57:41.102Z,7.43
2019-01-18T11:00:21.681Z,6.53
2019-01-18T11:02:50.017Z,6.60
2019-01-18T11:05:17.883Z,6.13
2019-01-18T11:07:45.484Z,7.40
2019-01-18T11:10:13.188Z,6.43
2019-01-18T11:12:40.868Z,11.27
2019-01-18T11:15:10.472Z,6.37
2019-01-18T11:17:38.088Z,7.00
2019-01-18T11:20:09.959Z,10.73
2019-01-18T11:22:37.533Z,8.90
2019-01-18T11:25:06.034Z,6.50
2019-01-18T11:27:33.789Z,9.17
2019-01-18T11:30:01.785Z,7.40
2019-01-18T11:32:29.509Z,7.20
2019-01-18T11:34:57.433Z,9.93
2019-01-18T11:37:25.040Z,7.40
2019-01-18T11:39:53.649Z,8.23
2019-01-18T11:42:21.217Z,9.37
2019-01-18T11:44:48.748Z,11.53
2019-01-18T11:47:16.321Z,8.40
2019-01-18T11:49:43.787Z,9.23
2019-01-18T11:52:11.689Z,13.13
2019-01-18T11:54:39.457Z,7.90
2019-01-18T11:57:07.012Z,9.53
2019-01-18T11:59:34.794Z,7.83
2019-01-18T12:02:03.056Z,9.27
2019-01-18T12:04:30.502Z,11.23
2019-01-18T12:06:58.085Z,14.00
2019-01-18T12:09:25.988Z,11.47
2019-01-18T12:11:53.480Z,9.47
2019-01-18T12:14:20.992Z,11.07
2019-01-18T12:16:50.278Z,7.97
2019-01-18T12:19:18.709Z,8.93
2019-01-18T12:21:47.939Z,10.93
2019-01-18T12:24:18.059Z,8.47
2019-01-18T12:26:46.224Z,11.70
2019-01-18T12:29:14.803Z,10.30
2019-01-18T12:31:43.574Z,10.13
2019-01-18T12:34:11.954Z,10.67
2019-01-18T12:36:39.928Z,12.63
2019-01-18T12:39:10.025Z,19.80
2019-01-18T12:41:38.671Z,15.40
2019-01-18T12:44:07.056Z,12.97
2019-01-18T12:46:35.628Z,10.90
2019-01-18T12:49:04.556Z,9.97
2019-01-18T12:51:34.045Z,13.70
2019-01-18T12:54:08.405Z,13.10
2019-01-18T12:59:47.914Z,17.17
2019-01-18T13:02:16.042Z,10.20
2019-01-18T13:04:43.751Z,11.37
2019-01-18T13:07:11.304Z,7.83
2019-01-18T13:09:39.023Z,10.10
2019-01-18T13:12:07.809Z,9.33
2019-01-18T13:14:35.737Z,7.57
2019-01-18T13:17:03.802Z,7.07
2019-01-18T13:19:31.855Z,6.90
2019-01-18T13:22:00.777Z,7.83
2019-01-18T13:24:28.763Z,8.77
2019-01-18T13:26:58.614Z,8.50
2019-01-18T13:29:50.701Z,7.90
2019-01-18T13:32:24.945Z,10.57
2019-01-18T13:34:59.405Z,7.90
2019-01-18T13:37:27.994Z,8.53
2019-01-18T13:39:56.483Z,7.80
2019-01-18T13:42:24.302Z,7.30
2019-01-18T13:44:52.865Z,7.23
2019-01-18T13:47:21.519Z,8.47
2019-01-18T13:49:52.795Z,10.00
2019-01-18T13:52:21.258Z,10.50
2019-01-18T13:54:49.425Z,7.50
2019-01-18T13:57:18.219Z,16.70
2019-01-18T13:59:46.354Z,7.37
2019-01-18T14:02:14.798Z,7.17
2019-01-18T14:04:42.841Z,10.13
2019-01-18T14:07:10.904Z,5.30
2019-01-18T14:09:39.237Z,6.33
2019-01-18T14:12:07.619Z,4.63
2019-01-18T14:14:35.675Z,6.53
2019-01-18T14:17:03.217Z,6.70
2019-01-18T14:19:31.466Z,10.53
2019-01-18T14:21:59.429Z,6.17
2019-01-18T14:24:29.973Z,7.80
2019-01-18T14:26:57.600Z,9.07
2019-01-18T14:29:25.749Z,7.07
2019-01-18T14:31:53.409Z,5.57
2019-01-18T14:34:21.656Z,6.20
2019-01-18T14:36:52.833Z,7.20
2019-01-18T14:39:20.481Z,6.50
2019-01-18T14:42:03.135Z,6.57
2019-01-18T14:44:31.379Z,7.57
2019-01-18T14:47:04.979Z,8.00
2019-01-18T14:49:43.243Z,8.80
2019-01-18T14:52:33.953Z,7.83
2019-01-18T14:55:03.687Z,12.93
2019-01-18T14:57:31.811Z,8.07
2019-01-18T15:00:01.081Z,8.10
2019-01-18T15:02:32.659Z,8.83
2019-01-18T15:05:08.679Z,7.63
2019-01-18T15:07:38.564Z,7.87
2019-01-18T15:10:09.478Z,6.63
2019-01-18T15:12:37.445Z,9.10
2019-01-18T15:15:07.480Z,7.57
2019-01-18T15:17:53.162Z,8.87
2019-01-18T15:20:25.399Z,9.53
2019-01-18T15:22:55.088Z,5.70
2019-01-18T15:25:22.909Z,5.77
2019-01-18T15:28:00.966Z,7.73
2019-01-18T15:30:32.786Z,8.93
2019-01-18T15:33:09.019Z,8.43
2019-01-18T15:35:37.063Z,6.57
2019-01-18T15:38:27.971Z,6.60
2019-01-18T15:41:07.682Z,5.00
2019-01-18T15:43:35.447Z,6.60
2019-01-18T15:46:04.032Z,8.33
2019-01-18T15:48:52.072Z,6.43
2019-01-18T15:51:21.614Z,9.23
2019-01-18T15:53:53.196Z,7.57
2019-01-18T15:56:21.163Z,9.97
2019-01-18T15:58:48.722Z,8.67
2019-01-18T16:01:19.376Z,8.47
2019-01-18T16:03:51.956Z,9.27
2019-01-18T16:06:30.071Z,10.13
2019-01-18T16:08:59.314Z,15.17
2019-01-18T16:11:27.116Z,9.60
2019-01-18T16:13:59.153Z,13.33
2019-01-18T16:16:31.288Z,13.10
2019-01-18T16:19:00.103Z,13.30
2019-01-18T16:21:29.942Z,10.43
2019-01-18T16:23:58.137Z,10.03
2019-01-18T16:26:25.636Z,10.50
2019-01-18T16:28:53.097Z,15.40
2019-01-18T16:31:20.597Z,25.00
2019-01-18T16:33:48.426Z,15.10
2019-01-18T16:36:31.760Z,19.50
2019-01-18T16:38:59.293Z,22.27
2019-01-18T16:41:32.696Z,20.37
2019-01-18T16:44:00.261Z,22.50
2019-01-18T16:46:28.051Z,21.80
2019-01-18T16:48:55.516Z,18.67
2019-01-18T16:51:23.129Z,20.83
2019-01-18T16:53:50.664Z,20.80
2019-01-18T16:56:18.620Z,23.40
2019-01-18T16:58:46.096Z,19.83
2019-01-18T17:01:14.592Z,21.07
2019-01-18T17:03:46.344Z,23.07
2019-01-18T17:06:15.010Z,22.40
2019-01-18T17:08:43.349Z,23.30
2019-01-18T17:11:11.495Z,25.00
2019-01-18T17:13:47.490Z,24.20
2019-01-18T17:16:16.045Z,35.13
2019-01-18T17:18:43.988Z,17.90
2019-01-18T17:22:25.260Z,24.60
2019-01-18T17:27:46.675Z,22.87
2019-01-18T17:30:26.901Z,22.07
2019-01-18T17:32:58.407Z,20.27
2019-01-18T17:35:39.481Z,17.97
2019-01-18T17:38:48.565Z,16.93
2019-01-18T17:42:12.059Z,16.67
2019-01-18T17:56:40.390Z,16.30
2019-01-18T18:00:01.739Z,17.17
2019-01-18T18:03:11.808Z,17.60
2019-01-18T18:06:02.365Z,15.07
2019-01-18T18:08:56.135Z,13.73
2019-01-18T18:12:17.722Z,18.80
2019-01-18T18:15:31.553Z,19.07
2019-01-18T18:18:10.009Z,18.13
2019-01-18T18:21:33.608Z,23.30
2019-01-18T18:25:09.022Z,14.23
2019-01-18T18:28:35.885Z,18.50
2019-01-18T18:31:50.412Z,18.30
2019-01-18T18:35:17.945Z,18.93
2019-01-18T18:38:54.586Z,15.23
2019-01-18T18:57:46.275Z,22.97
2019-01-18T19:00:59.027Z,27.23
2019-01-18T19:29:17.921Z,23.13
2019-01-18T19:36:19.472Z,27.23
2019-01-18T19:39:53.581Z,27.67
2019-01-18T19:43:25.354Z,24.77
2019-01-18T19:46:28.469Z,25.57
2019-01-18T19:49:46.657Z,25.50
2019-01-18T19:52:36.720Z,26.10
2019-01-18T19:55:47.989Z,19.80
2019-01-18T19:58:57.038Z,20.67
2019-01-18T20:02:44.854Z,24.90
2019-01-18T20:13:53.654Z,21.30
2019-01-18T20:21:06.801Z,24.87
2019-01-18T20:24:37.687Z,18.70
2019-01-18T20:39:54.629Z,20.83
2019-01-18T20:59:13.079Z,21.73
2019-01-18T21:23:19.334Z,27.97
2019-01-18T21:26:31.589Z,27.70
2019-01-18T21:41:38.739Z,25.20
2019-01-18T21:45:07.531Z,24.40
2019-01-18T21:48:38.598Z,22.33
2019-01-18T22:09:34.962Z,31.40
2019-01-18T22:16:16.059Z,27.03
2019-01-18T22:19:33.571Z,23.57
2019-01-18T22:22:49.098Z,20.53
2019-01-18T22:26:25.673Z,31.70
2019-01-18T22:33:37.580Z,25.10
2019-01-18T22:37:08.881Z,24.73
2019-01-18T22:40:38.714Z,24.60
2019-01-18T22:44:07.509Z,23.40
2019-01-18T22:55:08.497Z,25.37
2019-01-18T23:05:10.928Z,22.47
2019-01-18T23:08:29.412Z,25.07
2019-01-18T23:11:48.801Z,18.93
2019-01-18T23:15:15.871Z,28.13
2019-01-18T23:18:16.203Z,26.40
2019-01-18T23:21:39.398Z,23.67
2019-01-18T23:24:42.550Z,21.67
2019-01-18T23:27:49.268Z,20.10
2019-01-18T23:30:48.801Z,25.37
2019-01-18T23:33:57.090Z,24.00
2019-01-18T23:36:53.533Z,21.37
2019-01-18T23:40:11.537Z,28.07
2019-01-18T23:43:16.397Z,23.67
2019-01-18T23:46:29.005Z,21.80
2019-01-18T23:49:30.429Z,25.60
2019-01-18T23:53:44.128Z,22.20
